EXS82B EGKK-EDDH
Flight info
| Callsign | EXS82B |
|---|---|
| Flight time | 1h 12m |
| Altitude | 37000 |
| Route | FRANE M604 PAAVO Q295 SOMVA DCT MAVAS DCT PARYD DCT GASTU DCT OSTOR T904 RIBSO RIBSO7A |
| Aircraft | B738/M-SDE2E3FGHIRWXY/LB1 |
Departure
| Time | 2026-05-06 21:23 |
|---|---|
| Airport | London Gatwick Airport (EGKK) |
Arrival
| Time | 2026-05-06 22:35 |
|---|---|
| Airport | Hamburg Helmut Schmidt Airport (EDDH) |
| Time | Latitude | Longitude | Altitude | Speed | Heading |
|---|---|---|---|---|---|
| 2026-05-06 20:45 | 51.15445 | -0.16424 | 203 ft | 0 kts | 77° |
| 2026-05-06 21:01 | 51.15444 | -0.16429 | 203 ft | 3 kts | 77° |
| 2026-05-06 21:02 | 51.15436 | -0.16469 | 206 ft | 4 kts | 59° |
| 2026-05-06 21:02 | 51.15420 | -0.16498 | 212 ft | 4 kts | 21° |
| 2026-05-06 21:02 | 51.15405 | -0.16501 | 205 ft | 1 kts | 348° |
| 2026-05-06 21:08 | 51.15421 | -0.16507 | 211 ft | 4 kts | 347° |
| 2026-05-06 21:09 | 51.15433 | -0.16512 | 212 ft | 0 kts | 347° |
| 2026-05-06 21:10 | 51.15452 | -0.16527 | 206 ft | 12 kts | 323° |
| 2026-05-06 21:10 | 51.15451 | -0.16646 | 210 ft | 11 kts | 256° |
| 2026-05-06 21:10 | 51.15449 | -0.16769 | 206 ft | 11 kts | 271° |
| 2026-05-06 21:10 | 51.15439 | -0.16888 | 203 ft | 11 kts | 256° |
| 2026-05-06 21:11 | 51.15422 | -0.17001 | 203 ft | 10 kts | 256° |
| 2026-05-06 21:11 | 51.15405 | -0.17112 | 207 ft | 10 kts | 256° |
| 2026-05-06 21:11 | 51.15389 | -0.17219 | 211 ft | 10 kts | 256° |
| 2026-05-06 21:11 | 51.15384 | -0.17253 | 210 ft | 0 kts | 256° |
| 2026-05-06 21:12 | 51.15383 | -0.17254 | 210 ft | 0 kts | 253° |
| 2026-05-06 21:13 | 51.15376 | -0.17279 | 208 ft | 4 kts | 245° |
| 2026-05-06 21:13 | 51.15350 | -0.17341 | 207 ft | 10 kts | 219° |
| 2026-05-06 21:13 | 51.15297 | -0.17455 | 208 ft | 20 kts | 260° |
| 2026-05-06 21:13 | 51.15257 | -0.17717 | 213 ft | 25 kts | 254° |
| 2026-05-06 21:14 | 51.15232 | -0.17929 | 204 ft | 18 kts | 259° |
| 2026-05-06 21:14 | 51.15224 | -0.17991 | 206 ft | 5 kts | 257° |
| 2026-05-06 21:14 | 51.15205 | -0.18119 | 204 ft | 17 kts | 258° |
| 2026-05-06 21:14 | 51.15189 | -0.18264 | 204 ft | 13 kts | 262° |
| 2026-05-06 21:15 | 51.15170 | -0.18406 | 208 ft | 13 kts | 255° |
| 2026-05-06 21:15 | 51.15154 | -0.18544 | 206 ft | 13 kts | 259° |
| 2026-05-06 21:15 | 51.15136 | -0.18679 | 206 ft | 12 kts | 257° |
| 2026-05-06 21:15 | 51.15118 | -0.18810 | 207 ft | 12 kts | 257° |
| 2026-05-06 21:16 | 51.15100 | -0.18939 | 213 ft | 12 kts | 258° |
| 2026-05-06 21:16 | 51.15083 | -0.19064 | 210 ft | 11 kts | 257° |
| 2026-05-06 21:16 | 51.15066 | -0.19185 | 204 ft | 11 kts | 259° |
| 2026-05-06 21:16 | 51.15048 | -0.19322 | 206 ft | 23 kts | 258° |
| 2026-05-06 21:17 | 51.15003 | -0.19655 | 208 ft | 32 kts | 258° |
| 2026-05-06 21:17 | 51.14961 | -0.19955 | 204 ft | 26 kts | 257° |
| 2026-05-06 21:17 | 51.14922 | -0.20228 | 203 ft | 24 kts | 257° |
| 2026-05-06 21:17 | 51.14888 | -0.20482 | 203 ft | 23 kts | 258° |
| 2026-05-06 21:18 | 51.14856 | -0.20727 | 210 ft | 22 kts | 258° |
| 2026-05-06 21:18 | 51.14822 | -0.20964 | 211 ft | 22 kts | 255° |
| 2026-05-06 21:18 | 51.14790 | -0.21157 | 208 ft | 16 kts | 248° |
| 2026-05-06 21:18 | 51.14763 | -0.21325 | 204 ft | 11 kts | 257° |
| 2026-05-06 21:19 | 51.14720 | -0.21398 | 207 ft | 4 kts | 188° |
| 2026-05-06 21:20 | 51.14716 | -0.21398 | 206 ft | 3 kts | 184° |
| 2026-05-06 21:20 | 51.14684 | -0.21382 | 211 ft | 11 kts | 144° |
| 2026-05-06 21:20 | 51.14621 | -0.21328 | 207 ft | 0 kts | 166° |
| 2026-05-06 21:22 | 51.14580 | -0.21309 | 211 ft | 11 kts | 159° |
| 2026-05-06 21:22 | 51.14521 | -0.21225 | 212 ft | 12 kts | 113° |
| 2026-05-06 21:22 | 51.14526 | -0.21123 | 217 ft | 6 kts | 77° |
| 2026-05-06 21:23 | 51.14552 | -0.20942 | 210 ft | 52 kts | 77° |
| 2026-05-06 21:23 | 51.14696 | -0.19889 | 211 ft | 140 kts | 77° |
| 2026-05-06 21:23 | 51.14956 | -0.18047 | 509 ft | 187 kts | 78° |
| 2026-05-06 21:23 | 51.15256 | -0.15935 | 1558 ft | 197 kts | 76° |
| 2026-05-06 21:24 | 51.15547 | -0.13802 | 2748 ft | 206 kts | 76° |
| 2026-05-06 21:24 | 51.15873 | -0.11425 | 3162 ft | 236 kts | 76° |
| 2026-05-06 21:24 | 51.16240 | -0.08737 | 3587 ft | 257 kts | 77° |
| 2026-05-06 21:24 | 51.16493 | -0.06871 | 4125 ft | 261 kts | 77° |
| 2026-05-06 21:25 | 51.16873 | -0.04022 | 4744 ft | 266 kts | 79° |
| 2026-05-06 21:25 | 51.17045 | -0.01093 | 4988 ft | 267 kts | 90° |
| 2026-05-06 21:25 | 51.16896 | 0.02846 | 5000 ft | 270 kts | 94° |
| 2026-05-06 21:25 | 51.16767 | 0.05817 | 5020 ft | 268 kts | 92° |
| 2026-05-06 21:26 | 51.16683 | 0.08706 | 5691 ft | 264 kts | 92° |
| 2026-05-06 21:26 | 51.16619 | 0.11727 | 6271 ft | 280 kts | 92° |
| 2026-05-06 21:26 | 51.16558 | 0.14909 | 6844 ft | 295 kts | 91° |
| 2026-05-06 21:26 | 51.16533 | 0.17111 | 7215 ft | 304 kts | 90° |
| 2026-05-06 21:27 | 51.16538 | 0.20559 | 7793 ft | 318 kts | 89° |
| 2026-05-06 21:27 | 51.16561 | 0.24153 | 8380 ft | 330 kts | 89° |
| 2026-05-06 21:27 | 51.16578 | 0.27869 | 8975 ft | 342 kts | 89° |
| 2026-05-06 21:27 | 51.16587 | 0.31711 | 9574 ft | 349 kts | 89° |
| 2026-05-06 21:28 | 51.16592 | 0.35585 | 10142 ft | 351 kts | 89° |
| 2026-05-06 21:28 | 51.16594 | 0.39486 | 10673 ft | 353 kts | 89° |
| 2026-05-06 21:28 | 51.16595 | 0.43414 | 11225 ft | 356 kts | 89° |
| 2026-05-06 21:28 | 51.16612 | 0.47315 | 11772 ft | 358 kts | 87° |
| 2026-05-06 21:29 | 51.17044 | 0.51270 | 12238 ft | 361 kts | 65° |
| 2026-05-06 21:29 | 51.18485 | 0.54392 | 12844 ft | 356 kts | 38° |
| 2026-05-06 21:29 | 51.20660 | 0.56216 | 13461 ft | 353 kts | 16° |
| 2026-05-06 21:29 | 51.23052 | 0.57165 | 14078 ft | 358 kts | 11° |
| 2026-05-06 21:30 | 51.25521 | 0.57959 | 14620 ft | 365 kts | 10° |
| 2026-05-06 21:30 | 51.28022 | 0.58801 | 15165 ft | 370 kts | 11° |
| 2026-05-06 21:30 | 51.30538 | 0.59723 | 15732 ft | 372 kts | 12° |
| 2026-05-06 21:30 | 51.33057 | 0.60703 | 16285 ft | 374 kts | 12° |
| 2026-05-06 21:31 | 51.35591 | 0.61689 | 16856 ft | 375 kts | 12° |
| 2026-05-06 21:31 | 51.38099 | 0.62650 | 17433 ft | 377 kts | 12° |
| 2026-05-06 21:31 | 51.40668 | 0.63622 | 18052 ft | 381 kts | 11° |
| 2026-05-06 21:31 | 51.43265 | 0.64595 | 18607 ft | 386 kts | 11° |
| 2026-05-06 21:32 | 51.45890 | 0.65579 | 19144 ft | 389 kts | 11° |
| 2026-05-06 21:32 | 51.51213 | 0.67582 | 20239 ft | 396 kts | 11° |
| 2026-05-06 21:32 | 51.53895 | 0.68595 | 20799 ft | 398 kts | 11° |
| 2026-05-06 21:33 | 51.56568 | 0.69606 | 21365 ft | 400 kts | 11° |
| 2026-05-06 21:33 | 51.59284 | 0.70635 | 21943 ft | 402 kts | 11° |
| 2026-05-06 21:33 | 51.62010 | 0.71668 | 22535 ft | 403 kts | 11° |
| 2026-05-06 21:33 | 51.64738 | 0.72703 | 23136 ft | 404 kts | 11° |
| 2026-05-06 21:34 | 51.67480 | 0.73745 | 23726 ft | 405 kts | 11° |
| 2026-05-06 21:34 | 51.70217 | 0.74786 | 24240 ft | 405 kts | 11° |
| 2026-05-06 21:34 | 51.72956 | 0.75830 | 24765 ft | 404 kts | 11° |
| 2026-05-06 21:34 | 51.75699 | 0.76881 | 25300 ft | 404 kts | 11° |
| 2026-05-06 21:35 | 51.78426 | 0.77936 | 25841 ft | 403 kts | 12° |
| 2026-05-06 21:35 | 51.81090 | 0.79364 | 26339 ft | 406 kts | 25° |
| 2026-05-06 21:35 | 51.83415 | 0.81837 | 26951 ft | 405 kts | 36° |
| 2026-05-06 21:35 | 51.85537 | 0.84809 | 27499 ft | 405 kts | 44° |
| 2026-05-06 21:36 | 51.87306 | 0.88358 | 28079 ft | 405 kts | 56° |
| 2026-05-06 21:36 | 51.88668 | 0.92327 | 28676 ft | 403 kts | 66° |
| 2026-05-06 21:36 | 51.89660 | 0.96561 | 29322 ft | 400 kts | 70° |
| 2026-05-06 21:36 | 51.90549 | 1.00815 | 29936 ft | 397 kts | 71° |
| 2026-05-06 21:37 | 51.91480 | 1.04999 | 30480 ft | 393 kts | 68° |
| 2026-05-06 21:37 | 51.92524 | 1.09054 | 31009 ft | 389 kts | 65° |
| 2026-05-06 21:37 | 51.93598 | 1.12992 | 31543 ft | 384 kts | 65° |
| 2026-05-06 21:37 | 51.94670 | 1.16925 | 32094 ft | 379 kts | 65° |
| 2026-05-06 21:38 | 51.95708 | 1.20814 | 32643 ft | 373 kts | 66° |
| 2026-05-06 21:38 | 51.96706 | 1.24645 | 33215 ft | 366 kts | 66° |
| 2026-05-06 21:38 | 51.97673 | 1.28424 | 33780 ft | 359 kts | 67° |
| 2026-05-06 21:38 | 51.98613 | 1.32146 | 34133 ft | 358 kts | 67° |
| 2026-05-06 21:39 | 51.99569 | 1.35953 | 33977 ft | 372 kts | 67° |
| 2026-05-06 21:39 | 52.00561 | 1.39922 | 33832 ft | 385 kts | 67° |
| 2026-05-06 21:39 | 52.01580 | 1.44018 | 33780 ft | 396 kts | 67° |
| 2026-05-06 21:39 | 52.02601 | 1.48129 | 33900 ft | 401 kts | 67° |
| 2026-05-06 21:40 | 52.04720 | 1.56687 | 34025 ft | 415 kts | 68° |
| 2026-05-06 21:40 | 52.05791 | 1.61028 | 34435 ft | 409 kts | 68° |
| 2026-05-06 21:40 | 52.06839 | 1.65285 | 34880 ft | 405 kts | 68° |
| 2026-05-06 21:41 | 52.08972 | 1.73961 | 34838 ft | 422 kts | 68° |
| 2026-05-06 21:41 | 52.11176 | 1.82967 | 34937 ft | 433 kts | 68° |
| 2026-05-06 21:42 | 52.13408 | 1.92121 | 34995 ft | 446 kts | 68° |
| 2026-05-06 21:42 | 52.15718 | 2.01640 | 35012 ft | 458 kts | 68° |
| 2026-05-06 21:43 | 52.18083 | 2.11428 | 35013 ft | 470 kts | 68° |
| 2026-05-06 21:43 | 52.20492 | 2.21446 | 35022 ft | 480 kts | 68° |
| 2026-05-06 21:44 | 52.22938 | 2.31664 | 35032 ft | 485 kts | 68° |
| 2026-05-06 21:44 | 52.25368 | 2.41863 | 35015 ft | 487 kts | 68° |
| 2026-05-06 21:45 | 52.27804 | 2.52136 | 35012 ft | 482 kts | 68° |
| 2026-05-06 21:45 | 52.30210 | 2.62321 | 35021 ft | 480 kts | 68° |
| 2026-05-06 21:46 | 52.32444 | 2.72636 | 34998 ft | 484 kts | 72° |
| 2026-05-06 21:46 | 52.34328 | 2.83199 | 35024 ft | 484 kts | 75° |
| 2026-05-06 21:47 | 52.35997 | 2.93801 | 34992 ft | 484 kts | 73° |
| 2026-05-06 21:47 | 52.38193 | 3.04168 | 35009 ft | 482 kts | 67° |
| 2026-05-06 21:48 | 52.41080 | 3.14062 | 35005 ft | 482 kts | 61° |
| 2026-05-06 21:48 | 52.44235 | 3.23766 | 35010 ft | 483 kts | 62° |
| 2026-05-06 21:49 | 52.47189 | 3.33569 | 35011 ft | 482 kts | 64° |
| 2026-05-06 21:49 | 52.49970 | 3.43582 | 34989 ft | 482 kts | 65° |
| 2026-05-06 21:50 | 52.52686 | 3.53658 | 35014 ft | 482 kts | 65° |
| 2026-05-06 21:50 | 52.55403 | 3.63723 | 34988 ft | 482 kts | 65° |
| 2026-05-06 21:51 | 52.56750 | 3.68699 | 34855 ft | 485 kts | 65° |
| 2026-05-06 21:51 | 52.58132 | 3.73802 | 34360 ft | 489 kts | 65° |
| 2026-05-06 21:51 | 52.59509 | 3.78890 | 33946 ft | 484 kts | 65° |
| 2026-05-06 21:51 | 52.60858 | 3.83884 | 33514 ft | 475 kts | 65° |
| 2026-05-06 21:52 | 52.62188 | 3.88822 | 32998 ft | 469 kts | 65° |
| 2026-05-06 21:52 | 52.63504 | 3.93716 | 32554 ft | 464 kts | 65° |
| 2026-05-06 21:52 | 52.64797 | 3.98538 | 32114 ft | 458 kts | 65° |
| 2026-05-06 21:52 | 52.66076 | 4.03318 | 31664 ft | 453 kts | 65° |
| 2026-05-06 21:53 | 52.67321 | 4.07982 | 31218 ft | 449 kts | 65° |
| 2026-05-06 21:53 | 52.68576 | 4.12692 | 30800 ft | 450 kts | 65° |
| 2026-05-06 21:53 | 52.69833 | 4.17417 | 30395 ft | 452 kts | 65° |
| 2026-05-06 21:53 | 52.71099 | 4.22185 | 29954 ft | 452 kts | 66° |
| 2026-05-06 21:54 | 52.72355 | 4.26928 | 29466 ft | 453 kts | 66° |
| 2026-05-06 21:54 | 52.73614 | 4.31691 | 28980 ft | 453 kts | 66° |
| 2026-05-06 21:54 | 52.74872 | 4.36461 | 28507 ft | 453 kts | 66° |
| 2026-05-06 21:54 | 52.76125 | 4.41219 | 28053 ft | 453 kts | 66° |
| 2026-05-06 21:55 | 52.77366 | 4.45947 | 27606 ft | 454 kts | 66° |
| 2026-05-06 21:55 | 52.78617 | 4.50721 | 27155 ft | 454 kts | 66° |
| 2026-05-06 21:55 | 52.79872 | 4.55518 | 26709 ft | 456 kts | 66° |
| 2026-05-06 21:55 | 52.81131 | 4.60343 | 26272 ft | 457 kts | 66° |
| 2026-05-06 21:56 | 52.82387 | 4.65166 | 25859 ft | 459 kts | 66° |
| 2026-05-06 21:56 | 52.83650 | 4.70025 | 25436 ft | 460 kts | 66° |
| 2026-05-06 21:56 | 52.84911 | 4.74890 | 25025 ft | 461 kts | 66° |
| 2026-05-06 21:56 | 52.86176 | 4.79780 | 24611 ft | 461 kts | 66° |
| 2026-05-06 21:57 | 52.87434 | 4.84650 | 24199 ft | 457 kts | 66° |
| 2026-05-06 21:57 | 52.88594 | 4.89436 | 23949 ft | 449 kts | 70° |
| 2026-05-06 21:57 | 52.89576 | 4.94299 | 24094 ft | 446 kts | 73° |
| 2026-05-06 21:57 | 52.90381 | 4.99295 | 23962 ft | 454 kts | 77° |
| 2026-05-06 21:58 | 52.90984 | 5.04412 | 24045 ft | 451 kts | 80° |
| 2026-05-06 21:58 | 52.91511 | 5.09556 | 23998 ft | 454 kts | 81° |
| 2026-05-06 21:58 | 52.92048 | 5.14703 | 23987 ft | 451 kts | 80° |
| 2026-05-06 21:58 | 52.92627 | 5.19833 | 23576 ft | 455 kts | 79° |
| 2026-05-06 21:59 | 52.93251 | 5.24934 | 23113 ft | 448 kts | 78° |
| 2026-05-06 21:59 | 52.93901 | 5.29943 | 22705 ft | 442 kts | 78° |
| 2026-05-06 21:59 | 52.94557 | 5.34846 | 22251 ft | 440 kts | 77° |
| 2026-05-06 21:59 | 52.95226 | 5.39781 | 21835 ft | 437 kts | 77° |
| 2026-05-06 22:00 | 52.95890 | 5.44669 | 21460 ft | 431 kts | 77° |
| 2026-05-06 22:00 | 52.96536 | 5.49449 | 21626 ft | 424 kts | 77° |
| 2026-05-06 22:00 | 52.97181 | 5.54251 | 21599 ft | 425 kts | 77° |
| 2026-05-06 22:00 | 52.97817 | 5.59018 | 21650 ft | 424 kts | 77° |
| 2026-05-06 22:01 | 52.98452 | 5.63804 | 21623 ft | 426 kts | 78° |
| 2026-05-06 22:01 | 52.99085 | 5.68601 | 21647 ft | 426 kts | 78° |
| 2026-05-06 22:01 | 52.99716 | 5.73403 | 21631 ft | 426 kts | 78° |
| 2026-05-06 22:01 | 53.00347 | 5.78221 | 21641 ft | 426 kts | 78° |
| 2026-05-06 22:02 | 53.00965 | 5.82953 | 21636 ft | 426 kts | 78° |
| 2026-05-06 22:02 | 53.01591 | 5.87762 | 21636 ft | 426 kts | 78° |
| 2026-05-06 22:02 | 53.02215 | 5.92570 | 21639 ft | 426 kts | 78° |
| 2026-05-06 22:02 | 53.02837 | 5.97389 | 21635 ft | 426 kts | 78° |
| 2026-05-06 22:03 | 53.03452 | 6.02163 | 21620 ft | 418 kts | 78° |
| 2026-05-06 22:03 | 53.04048 | 6.06812 | 21609 ft | 402 kts | 78° |
| 2026-05-06 22:03 | 53.04620 | 6.11276 | 21621 ft | 386 kts | 78° |
| 2026-05-06 22:03 | 53.05165 | 6.15555 | 21599 ft | 372 kts | 78° |
| 2026-05-06 22:04 | 53.05690 | 6.19683 | 21599 ft | 359 kts | 78° |
| 2026-05-06 22:04 | 53.06195 | 6.23665 | 21623 ft | 356 kts | 78° |
| 2026-05-06 22:04 | 53.06704 | 6.27700 | 21598 ft | 358 kts | 78° |
| 2026-05-06 22:04 | 53.07217 | 6.31767 | 21624 ft | 359 kts | 78° |
| 2026-05-06 22:05 | 53.07729 | 6.35842 | 21620 ft | 361 kts | 78° |
| 2026-05-06 22:05 | 53.08242 | 6.39935 | 21611 ft | 362 kts | 78° |
| 2026-05-06 22:05 | 53.08754 | 6.44033 | 21627 ft | 362 kts | 78° |
| 2026-05-06 22:05 | 53.09266 | 6.48146 | 21627 ft | 364 kts | 78° |
| 2026-05-06 22:06 | 53.09777 | 6.52254 | 21598 ft | 361 kts | 79° |
| 2026-05-06 22:06 | 53.10275 | 6.56274 | 21625 ft | 359 kts | 79° |
| 2026-05-06 22:06 | 53.10779 | 6.60356 | 21593 ft | 361 kts | 79° |
| 2026-05-06 22:06 | 53.11282 | 6.64444 | 21625 ft | 360 kts | 79° |
| 2026-05-06 22:07 | 53.11784 | 6.68534 | 21624 ft | 361 kts | 79° |
| 2026-05-06 22:07 | 53.12286 | 6.72635 | 21612 ft | 362 kts | 79° |
| 2026-05-06 22:07 | 53.12786 | 6.76740 | 21360 ft | 364 kts | 79° |
| 2026-05-06 22:07 | 53.13294 | 6.80916 | 20823 ft | 369 kts | 79° |
| 2026-05-06 22:08 | 53.13798 | 6.85078 | 20530 ft | 364 kts | 79° |
| 2026-05-06 22:08 | 53.14294 | 6.89188 | 20117 ft | 363 kts | 79° |
| 2026-05-06 22:08 | 53.14783 | 6.93243 | 19748 ft | 360 kts | 78° |
| 2026-05-06 22:08 | 53.15272 | 6.97318 | 19388 ft | 358 kts | 78° |
| 2026-05-06 22:09 | 53.15758 | 7.01384 | 19011 ft | 356 kts | 78° |
| 2026-05-06 22:09 | 53.16239 | 7.05407 | 18654 ft | 354 kts | 78° |
| 2026-05-06 22:09 | 53.16717 | 7.09427 | 18304 ft | 352 kts | 78° |
| 2026-05-06 22:09 | 53.17190 | 7.13415 | 17910 ft | 350 kts | 78° |
| 2026-05-06 22:10 | 53.17660 | 7.17384 | 17504 ft | 348 kts | 78° |
| 2026-05-06 22:10 | 53.18127 | 7.21342 | 17092 ft | 346 kts | 78° |
| 2026-05-06 22:10 | 53.18588 | 7.25263 | 16699 ft | 345 kts | 78° |
| 2026-05-06 22:10 | 53.19041 | 7.29125 | 16299 ft | 343 kts | 78° |
| 2026-05-06 22:11 | 53.19496 | 7.33014 | 15923 ft | 341 kts | 78° |
| 2026-05-06 22:11 | 53.19946 | 7.36881 | 15550 ft | 339 kts | 78° |
| 2026-05-06 22:11 | 53.20394 | 7.40734 | 15172 ft | 337 kts | 78° |
| 2026-05-06 22:11 | 53.20837 | 7.44556 | 14945 ft | 330 kts | 79° |
| 2026-05-06 22:12 | 53.21252 | 7.48172 | 15021 ft | 307 kts | 79° |
| 2026-05-06 22:12 | 53.21643 | 7.51577 | 14946 ft | 291 kts | 79° |
| 2026-05-06 22:12 | 53.22022 | 7.54881 | 14958 ft | 298 kts | 79° |
| 2026-05-06 22:12 | 53.22422 | 7.58366 | 14945 ft | 319 kts | 79° |
| 2026-05-06 22:13 | 53.22843 | 7.62028 | 14952 ft | 322 kts | 79° |
| 2026-05-06 22:13 | 53.23262 | 7.65695 | 14950 ft | 320 kts | 79° |
| 2026-05-06 22:13 | 53.23676 | 7.69336 | 14931 ft | 318 kts | 79° |
| 2026-05-06 22:13 | 53.24085 | 7.72949 | 14943 ft | 317 kts | 79° |
| 2026-05-06 22:14 | 53.24494 | 7.76566 | 14919 ft | 317 kts | 79° |
| 2026-05-06 22:14 | 53.24899 | 7.80165 | 14942 ft | 315 kts | 79° |
| 2026-05-06 22:14 | 53.25303 | 7.83769 | 14925 ft | 316 kts | 79° |
| 2026-05-06 22:14 | 53.25705 | 7.87363 | 14934 ft | 315 kts | 79° |
| 2026-05-06 22:15 | 53.26108 | 7.90971 | 14940 ft | 315 kts | 79° |
| 2026-05-06 22:15 | 53.26499 | 7.94481 | 14919 ft | 308 kts | 79° |
| 2026-05-06 22:15 | 53.26884 | 7.97952 | 14919 ft | 300 kts | 79° |
| 2026-05-06 22:15 | 53.27259 | 8.01348 | 14916 ft | 295 kts | 79° |
| 2026-05-06 22:16 | 53.27629 | 8.04694 | 14942 ft | 290 kts | 79° |
| 2026-05-06 22:16 | 53.27992 | 8.07993 | 14951 ft | 290 kts | 79° |
| 2026-05-06 22:16 | 53.28357 | 8.11317 | 14937 ft | 293 kts | 79° |
| 2026-05-06 22:16 | 53.28727 | 8.14685 | 14945 ft | 295 kts | 79° |
| 2026-05-06 22:17 | 53.29095 | 8.18053 | 14927 ft | 294 kts | 79° |
| 2026-05-06 22:17 | 53.29456 | 8.21370 | 14928 ft | 293 kts | 79° |
| 2026-05-06 22:17 | 53.29818 | 8.24710 | 14935 ft | 292 kts | 79° |
| 2026-05-06 22:17 | 53.30179 | 8.28045 | 14938 ft | 292 kts | 79° |
| 2026-05-06 22:18 | 53.30540 | 8.31385 | 14922 ft | 292 kts | 79° |
| 2026-05-06 22:18 | 53.30899 | 8.34717 | 14918 ft | 289 kts | 79° |
| 2026-05-06 22:18 | 53.31248 | 8.37961 | 14901 ft | 277 kts | 79° |
| 2026-05-06 22:18 | 53.31582 | 8.41081 | 14929 ft | 271 kts | 79° |
| 2026-05-06 22:19 | 53.31911 | 8.44164 | 14907 ft | 268 kts | 79° |
| 2026-05-06 22:19 | 53.32234 | 8.47195 | 14930 ft | 268 kts | 79° |
| 2026-05-06 22:19 | 53.32561 | 8.50263 | 14920 ft | 269 kts | 79° |
| 2026-05-06 22:19 | 53.32887 | 8.53339 | 14928 ft | 268 kts | 79° |
| 2026-05-06 22:20 | 53.33213 | 8.56418 | 14923 ft | 269 kts | 79° |
| 2026-05-06 22:20 | 53.33540 | 8.59509 | 14924 ft | 269 kts | 79° |
| 2026-05-06 22:20 | 53.33867 | 8.62614 | 14648 ft | 277 kts | 79° |
| 2026-05-06 22:20 | 53.34204 | 8.65827 | 14150 ft | 281 kts | 80° |
| 2026-05-06 22:21 | 53.34538 | 8.69032 | 13716 ft | 279 kts | 79° |
| 2026-05-06 22:21 | 53.34871 | 8.72220 | 13190 ft | 278 kts | 79° |
| 2026-05-06 22:21 | 53.35203 | 8.75401 | 12703 ft | 275 kts | 79° |
| 2026-05-06 22:21 | 53.35524 | 8.78501 | 12234 ft | 267 kts | 79° |
| 2026-05-06 22:22 | 53.35834 | 8.81495 | 11744 ft | 262 kts | 79° |
| 2026-05-06 22:22 | 53.36141 | 8.84469 | 11263 ft | 257 kts | 79° |
| 2026-05-06 22:22 | 53.36443 | 8.87395 | 10794 ft | 253 kts | 79° |
| 2026-05-06 22:22 | 53.36739 | 8.90276 | 10319 ft | 249 kts | 79° |
| 2026-05-06 22:23 | 53.37030 | 8.93106 | 9979 ft | 241 kts | 79° |
| 2026-05-06 22:23 | 53.37299 | 8.95740 | 9943 ft | 220 kts | 80° |
| 2026-05-06 22:23 | 53.37545 | 8.98157 | 9890 ft | 201 kts | 80° |
| 2026-05-06 22:23 | 53.37778 | 9.00446 | 9508 ft | 202 kts | 80° |
| 2026-05-06 22:24 | 53.38010 | 9.02726 | 9138 ft | 200 kts | 79° |
| 2026-05-06 22:24 | 53.38242 | 9.05015 | 8736 ft | 200 kts | 79° |
| 2026-05-06 22:24 | 53.38474 | 9.07304 | 8355 ft | 199 kts | 79° |
| 2026-05-06 22:24 | 53.38704 | 9.09584 | 7967 ft | 198 kts | 79° |
| 2026-05-06 22:25 | 53.38933 | 9.11849 | 7591 ft | 197 kts | 79° |
| 2026-05-06 22:25 | 53.39161 | 9.14112 | 7217 ft | 196 kts | 79° |
| 2026-05-06 22:25 | 53.39387 | 9.16364 | 6842 ft | 196 kts | 79° |
| 2026-05-06 22:25 | 53.39615 | 9.18632 | 6373 ft | 200 kts | 79° |
| 2026-05-06 22:26 | 53.39846 | 9.20931 | 5862 ft | 203 kts | 79° |
| 2026-05-06 22:26 | 53.40080 | 9.23271 | 5348 ft | 207 kts | 79° |
| 2026-05-06 22:26 | 53.40318 | 9.25653 | 4853 ft | 209 kts | 79° |
| 2026-05-06 22:26 | 53.40557 | 9.28062 | 4336 ft | 210 kts | 79° |
| 2026-05-06 22:27 | 53.40796 | 9.30466 | 3825 ft | 210 kts | 79° |
| 2026-05-06 22:27 | 53.41034 | 9.32867 | 3308 ft | 207 kts | 80° |
| 2026-05-06 22:27 | 53.41268 | 9.35241 | 2799 ft | 206 kts | 80° |
| 2026-05-06 22:27 | 53.41497 | 9.37573 | 2555 ft | 194 kts | 80° |
| 2026-05-06 22:28 | 53.41703 | 9.39679 | 2518 ft | 175 kts | 80° |
| 2026-05-06 22:28 | 53.41889 | 9.41572 | 2477 ft | 158 kts | 80° |
| 2026-05-06 22:28 | 53.42057 | 9.43296 | 2458 ft | 145 kts | 79° |
| 2026-05-06 22:28 | 53.42220 | 9.44958 | 2507 ft | 149 kts | 79° |
| 2026-05-06 22:29 | 53.42394 | 9.46724 | 2500 ft | 156 kts | 80° |
| 2026-05-06 22:29 | 53.42570 | 9.48511 | 2482 ft | 154 kts | 80° |
| 2026-05-06 22:29 | 53.42742 | 9.50276 | 2497 ft | 153 kts | 80° |
| 2026-05-06 22:29 | 53.42912 | 9.52025 | 2486 ft | 152 kts | 80° |
| 2026-05-06 22:30 | 53.43080 | 9.53759 | 2479 ft | 149 kts | 80° |
| 2026-05-06 22:30 | 53.43247 | 9.55475 | 2490 ft | 149 kts | 80° |
| 2026-05-06 22:30 | 53.43409 | 9.57159 | 2485 ft | 149 kts | 80° |
| 2026-05-06 22:30 | 53.43595 | 9.58858 | 2492 ft | 148 kts | 74° |
| 2026-05-06 22:31 | 53.44106 | 9.60357 | 2482 ft | 150 kts | 45° |
| 2026-05-06 22:31 | 53.44887 | 9.61513 | 2517 ft | 154 kts | 49° |
| 2026-05-06 22:31 | 53.45542 | 9.62908 | 2530 ft | 150 kts | 56° |
| 2026-05-06 22:31 | 53.46179 | 9.64332 | 2494 ft | 152 kts | 54° |
| 2026-05-06 22:32 | 53.46832 | 9.65724 | 2421 ft | 155 kts | 53° |
| 2026-05-06 22:32 | 53.47507 | 9.67139 | 2096 ft | 153 kts | 55° |
| 2026-05-06 22:32 | 53.48043 | 9.68575 | 1838 ft | 142 kts | 66° |
| 2026-05-06 22:32 | 53.48372 | 9.70144 | 1442 ft | 143 kts | 73° |
| 2026-05-06 22:33 | 53.48655 | 9.71619 | 1415 ft | 117 kts | 71° |
| 2026-05-06 22:33 | 53.48906 | 9.72899 | 1278 ft | 121 kts | 70° |
| 2026-05-06 22:33 | 53.49297 | 9.74188 | 1208 ft | 118 kts | 59° |
| 2026-05-06 22:33 | 53.49725 | 9.75237 | 1000 ft | 106 kts | 52° |
| 2026-05-06 22:34 | 53.50231 | 9.76314 | 856 ft | 117 kts | 53° |
| 2026-05-06 22:34 | 53.50666 | 9.77342 | 614 ft | 105 kts | 56° |
| 2026-05-06 22:34 | 53.51130 | 9.78434 | 402 ft | 121 kts | 52° |
| 2026-05-06 22:34 | 53.51657 | 9.79552 | 361 ft | 133 kts | 53° |
| 2026-05-06 22:35 | 53.52203 | 9.80731 | 206 ft | 122 kts | 53° |
| 2026-05-06 22:35 | 53.52723 | 9.81841 | 68 ft | 120 kts | 51° |
| 2026-05-06 22:35 | 53.53215 | 9.82882 | 23 ft | 101 kts | 50° |
| 2026-05-06 22:35 | 53.53415 | 9.83358 | 24 ft | 21 kts | 87° |
| 2026-05-06 22:36 | 53.53384 | 9.83392 | 23 ft | 5 kts | 165° |